createdAt,value
2023-01-29T00:02:09.514Z,21.40
2023-01-29T00:04:36.486Z,21.08
2023-01-29T00:07:03.291Z,20.65
2023-01-29T00:09:31.417Z,20.60
2023-01-29T00:11:58.300Z,21.52
2023-01-29T00:14:26.366Z,21.60
2023-01-29T00:16:53.421Z,21.27
2023-01-29T00:19:20.323Z,20.98
2023-01-29T00:21:47.170Z,22.05
2023-01-29T00:24:13.944Z,22.05
2023-01-29T00:26:42.416Z,21.33
2023-01-29T00:29:09.244Z,21.48
2023-01-29T00:31:36.210Z,21.27
2023-01-29T00:34:03.554Z,21.80
2023-01-29T00:36:30.388Z,21.52
2023-01-29T00:38:59.219Z,21.88
2023-01-29T00:41:49.902Z,21.77
2023-01-29T00:44:35.682Z,20.98
2023-01-29T00:47:04.294Z,22.50
2023-01-29T00:49:31.308Z,21.27
2023-01-29T00:52:16.211Z,21.10
2023-01-29T00:54:42.917Z,21.83
2023-01-29T00:57:09.871Z,21.50
2023-01-29T00:59:36.686Z,22.38
2023-01-29T01:02:22.512Z,22.27
2023-01-29T01:04:49.306Z,22.00
2023-01-29T01:07:16.171Z,21.73
2023-01-29T01:10:01.215Z,21.85
2023-01-29T01:12:28.538Z,21.20
2023-01-29T01:14:55.334Z,20.98
2023-01-29T01:17:22.238Z,21.08
2023-01-29T01:19:49.327Z,22.00
2023-01-29T01:22:16.718Z,20.73
2023-01-29T01:24:43.484Z,19.75
2023-01-29T01:27:10.264Z,20.40
2023-01-29T01:29:37.017Z,20.23
2023-01-29T01:32:03.996Z,20.45
2023-01-29T01:34:30.789Z,21.13
2023-01-29T01:36:57.797Z,20.75
2023-01-29T01:39:25.538Z,20.17
2023-01-29T01:41:56.229Z,21.15
2023-01-29T01:44:52.637Z,20.75
2023-01-29T01:47:30.967Z,20.23
2023-01-29T01:50:02.690Z,19.77
2023-01-29T01:52:31.856Z,21.08
2023-01-29T01:55:00.199Z,19.30
2023-01-29T01:57:28.684Z,20.35
2023-01-29T02:00:00.647Z,19.95
2023-01-29T02:02:46.679Z,20.35
2023-01-29T02:05:32.949Z,20.33
2023-01-29T02:08:18.460Z,21.17
2023-01-29T02:10:47.589Z,19.38
2023-01-29T02:13:18.598Z,19.33
2023-01-29T02:15:48.631Z,19.50
2023-01-29T02:18:17.770Z,19.85
2023-01-29T02:21:00.874Z,20.27
2023-01-29T02:23:56.738Z,19.77
2023-01-29T02:26:44.843Z,19.63
2023-01-29T02:29:27.187Z,20.88
2023-01-29T02:32:28.977Z,19.77
2023-01-29T02:35:32.767Z,19.33
2023-01-29T02:38:27.327Z,20.00
2023-01-29T02:41:22.418Z,20.48
2023-01-29T02:44:01.418Z,21.15
2023-01-29T02:46:47.665Z,20.95
2023-01-29T02:49:51.738Z,20.70
2023-01-29T02:52:25.375Z,20.38
2023-01-29T02:55:02.830Z,20.58
2023-01-29T02:57:36.123Z,20.88
2023-01-29T03:00:09.214Z,21.15
2023-01-29T03:02:48.825Z,20.95
2023-01-29T03:05:30.996Z,21.75
2023-01-29T03:08:04.491Z,21.58
2023-01-29T03:10:45.833Z,20.75
2023-01-29T03:13:34.297Z,20.73
2023-01-29T03:16:09.912Z,21.25
2023-01-29T03:18:57.586Z,21.15
2023-01-29T03:21:55.113Z,21.20
2023-01-29T03:24:57.500Z,21.00
2023-01-29T03:27:50.112Z,19.65
2023-01-29T03:30:36.885Z,21.05
2023-01-29T03:33:07.890Z,20.77
2023-01-29T03:35:58.544Z,21.95
2023-01-29T03:38:29.601Z,21.42
2023-01-29T03:41:01.132Z,22.27
2023-01-29T03:43:51.060Z,22.05
2023-01-29T03:46:36.984Z,21.52
2023-01-29T03:49:22.099Z,21.30
2023-01-29T03:52:13.945Z,22.83
2023-01-29T03:54:49.546Z,23.55
2023-01-29T03:57:41.178Z,22.05
2023-01-29T04:00:16.042Z,22.88
2023-01-29T04:03:17.117Z,24.30
2023-01-29T04:05:50.248Z,24.48
2023-01-29T04:08:26.063Z,24.33
2023-01-29T04:10:54.756Z,24.80
2023-01-29T04:13:23.383Z,25.02
2023-01-29T04:15:56.883Z,25.60
2023-01-29T04:18:26.613Z,25.98
2023-01-29T04:20:53.998Z,25.35
2023-01-29T04:23:26.244Z,25.77
2023-01-29T04:25:59.250Z,25.35
2023-01-29T04:28:42.912Z,26.90
2023-01-29T04:31:12.215Z,26.58
2023-01-29T04:33:58.896Z,26.58
2023-01-29T04:36:25.802Z,27.75
2023-01-29T04:39:26.555Z,26.60
2023-01-29T04:41:55.432Z,27.30
2023-01-29T04:44:44.884Z,28.67
2023-01-29T04:47:29.849Z,26.83
2023-01-29T04:50:06.163Z,28.15
2023-01-29T04:52:39.209Z,27.38
2023-01-29T04:55:32.813Z,29.40
2023-01-29T04:58:18.043Z,28.02
2023-01-29T05:03:16.228Z,28.13
2023-01-29T05:05:46.436Z,30.08
2023-01-29T05:08:16.242Z,29.58
2023-01-29T05:10:43.286Z,28.52
2023-01-29T05:13:13.566Z,28.92
2023-01-29T05:15:45.368Z,30.27
2023-01-29T05:18:12.543Z,31.65
2023-01-29T05:20:43.013Z,29.38
2023-01-29T05:23:21.856Z,30.25
2023-01-29T05:25:50.758Z,30.27
2023-01-29T05:28:17.896Z,31.20
2023-01-29T05:30:47.652Z,29.05
2023-01-29T05:33:29.591Z,30.30
2023-01-29T05:35:58.289Z,29.42
2023-01-29T05:38:25.645Z,28.75
2023-01-29T05:40:52.595Z,29.95
2023-01-29T05:43:24.461Z,28.90
2023-01-29T05:45:59.474Z,29.83
2023-01-29T05:48:29.013Z,29.02
2023-01-29T05:51:03.976Z,28.85
2023-01-29T05:56:01.479Z,29.42
2023-01-29T05:58:29.953Z,28.73
2023-01-29T06:00:56.854Z,29.55
2023-01-29T06:03:23.597Z,30.33
2023-01-29T06:05:50.433Z,30.58
2023-01-29T06:08:17.250Z,30.02
2023-01-29T06:10:43.968Z,30.05
2023-01-29T06:13:10.854Z,29.05
2023-01-29T06:15:40.037Z,28.80
2023-01-29T06:18:06.826Z,30.92
2023-01-29T06:20:33.569Z,30.25
2023-01-29T06:23:00.476Z,30.42
2023-01-29T06:25:27.245Z,31.77
2023-01-29T06:27:53.962Z,30.42
2023-01-29T06:30:20.740Z,30.70
2023-01-29T06:32:47.523Z,29.70
2023-01-29T06:35:14.585Z,31.48
2023-01-29T06:37:41.404Z,32.50
2023-01-29T06:40:09.066Z,31.10
2023-01-29T06:42:36.064Z,31.83
2023-01-29T06:45:02.938Z,30.88
2023-01-29T06:47:29.756Z,31.33
2023-01-29T06:49:56.530Z,31.33
2023-01-29T06:52:23.356Z,32.50
2023-01-29T06:54:50.088Z,31.77
2023-01-29T06:57:16.857Z,32.70
2023-01-29T06:59:43.590Z,32.58
2023-01-29T07:02:10.776Z,32.35
2023-01-29T07:04:37.887Z,32.88
2023-01-29T07:07:05.120Z,34.22
2023-01-29T07:09:32.067Z,32.90
2023-01-29T07:11:58.845Z,33.10
2023-01-29T07:14:25.588Z,34.30
2023-01-29T07:16:52.353Z,35.75
2023-01-29T07:19:19.146Z,34.03
2023-01-29T07:21:46.024Z,32.92
2023-01-29T07:24:12.986Z,33.70
2023-01-29T07:26:39.976Z,36.05
2023-01-29T07:29:06.812Z,34.92
2023-01-29T07:31:33.980Z,37.35
2023-01-29T07:34:00.866Z,35.08
2023-01-29T07:36:28.459Z,37.05
2023-01-29T07:38:55.437Z,36.55
2023-01-29T07:41:22.432Z,36.25
2023-01-29T07:43:49.279Z,34.38
2023-01-29T07:46:16.239Z,34.92
2023-01-29T07:48:43.024Z,37.20
2023-01-29T07:51:09.820Z,38.70
2023-01-29T07:53:37.075Z,37.88
2023-01-29T07:56:04.219Z,36.20
2023-01-29T07:58:31.096Z,35.80
2023-01-29T08:00:57.938Z,34.22
2023-01-29T08:03:24.822Z,34.47
2023-01-29T08:05:51.765Z,34.20
2023-01-29T08:08:19.448Z,33.20
2023-01-29T08:10:46.319Z,36.20
2023-01-29T08:13:13.163Z,34.25
2023-01-29T08:15:44.064Z,34.13
2023-01-29T08:18:10.893Z,35.55
2023-01-29T08:20:45.840Z,35.85
2023-01-29T08:23:16.312Z,36.25
2023-01-29T08:25:43.243Z,35.78
2023-01-29T08:28:11.742Z,37.80
2023-01-29T08:30:39.091Z,36.30
2023-01-29T08:33:06.094Z,36.80
2023-01-29T08:35:33.014Z,37.58
2023-01-29T08:38:03.342Z,37.15
2023-01-29T08:40:32.994Z,33.72
2023-01-29T08:43:02.248Z,34.83
2023-01-29T08:45:30.736Z,35.70
2023-01-29T08:47:57.806Z,35.08
2023-01-29T08:50:24.770Z,34.60
2023-01-29T08:52:52.175Z,34.95
2023-01-29T08:55:19.293Z,35.05
2023-01-29T08:57:46.282Z,36.85
2023-01-29T09:00:13.784Z,34.50
2023-01-29T09:02:40.601Z,33.92
2023-01-29T09:05:08.370Z,34.35
2023-01-29T09:07:35.139Z,35.75
2023-01-29T09:10:02.294Z,34.22
2023-01-29T09:12:29.041Z,31.60
2023-01-29T09:14:57.012Z,34.70
2023-01-29T09:17:24.177Z,33.30
2023-01-29T09:19:53.031Z,34.20
2023-01-29T09:22:20.575Z,32.05
2023-01-29T09:24:47.399Z,32.67
2023-01-29T09:27:14.266Z,33.75
2023-01-29T09:29:41.119Z,34.67
2023-01-29T09:32:08.102Z,34.20
2023-01-29T09:34:35.273Z,33.03
2023-01-29T09:37:02.079Z,34.33
2023-01-29T09:39:28.824Z,33.65
2023-01-29T09:42:15.130Z,33.55
2023-01-29T09:45:00.334Z,34.78
2023-01-29T09:50:01.767Z,31.73
2023-01-29T09:52:38.740Z,34.58
2023-01-29T09:55:26.606Z,33.60
2023-01-29T09:58:03.680Z,34.05
2023-01-29T10:00:34.402Z,33.33
2023-01-29T10:03:22.385Z,33.90
2023-01-29T10:05:55.067Z,34.00
2023-01-29T10:08:33.746Z,33.80
2023-01-29T10:11:24.414Z,34.45
2023-01-29T10:14:20.553Z,32.45
2023-01-29T10:17:17.842Z,33.38
2023-01-29T10:20:14.198Z,32.28
2023-01-29T10:23:00.525Z,33.67
2023-01-29T10:25:27.803Z,33.33
2023-01-29T10:27:58.140Z,32.92
2023-01-29T10:30:49.436Z,32.90
2023-01-29T10:33:54.231Z,33.05
2023-01-29T10:36:38.564Z,32.83
2023-01-29T10:39:05.463Z,32.90
2023-01-29T10:41:41.843Z,33.47
2023-01-29T10:44:28.852Z,32.13
2023-01-29T10:47:07.618Z,34.05
2023-01-29T10:49:40.607Z,32.25
2023-01-29T10:52:29.525Z,33.35
2023-01-29T10:54:56.262Z,32.35
2023-01-29T10:57:44.845Z,33.45
2023-01-29T11:00:22.347Z,33.97
2023-01-29T11:02:50.946Z,32.63
2023-01-29T11:05:43.866Z,33.00
2023-01-29T11:08:21.138Z,34.55
2023-01-29T11:11:13.503Z,33.63
2023-01-29T11:13:49.353Z,31.77
2023-01-29T11:16:16.237Z,32.75
2023-01-29T11:18:59.735Z,32.42
2023-01-29T11:21:28.067Z,33.85
2023-01-29T11:24:17.602Z,32.05
2023-01-29T11:26:48.004Z,32.65
2023-01-29T11:29:44.929Z,33.13
2023-01-29T11:32:32.790Z,32.05
2023-01-29T11:35:21.304Z,32.58
2023-01-29T11:37:48.638Z,34.25
2023-01-29T11:40:35.657Z,35.05
2023-01-29T11:43:21.464Z,33.50
2023-01-29T11:45:54.825Z,32.60
2023-01-29T11:48:25.606Z,33.55
2023-01-29T11:50:56.312Z,34.67
2023-01-29T11:53:33.818Z,33.80
2023-01-29T11:56:01.592Z,33.95
2023-01-29T11:58:32.867Z,32.58
2023-01-29T12:01:00.920Z,34.35
2023-01-29T12:03:48.968Z,32.55
2023-01-29T12:06:20.991Z,32.50
2023-01-29T12:08:56.127Z,33.10
2023-01-29T12:11:28.171Z,32.58
2023-01-29T12:13:57.385Z,30.83
2023-01-29T12:16:28.007Z,30.05
2023-01-29T12:18:56.955Z,31.10
2023-01-29T12:21:29.173Z,31.02
2023-01-29T12:24:40.440Z,29.33
2023-01-29T12:27:45.426Z,29.67
2023-01-29T12:30:21.380Z,30.40
2023-01-29T12:33:13.963Z,30.35
2023-01-29T12:36:04.063Z,29.08
2023-01-29T12:38:31.081Z,28.25
2023-01-29T12:41:07.845Z,29.08
2023-01-29T12:43:49.620Z,30.90
2023-01-29T12:46:28.018Z,28.38
2023-01-29T12:48:59.592Z,28.60
2023-01-29T12:51:33.822Z,29.83
2023-01-29T12:54:09.506Z,29.58
2023-01-29T12:56:41.123Z,28.92
2023-01-29T12:59:29.095Z,29.55
2023-01-29T13:02:05.985Z,28.95
2023-01-29T13:04:57.953Z,27.70
2023-01-29T13:07:41.209Z,28.27
2023-01-29T13:10:13.814Z,28.17
2023-01-29T13:12:50.636Z,26.88
2023-01-29T13:15:35.978Z,25.60
2023-01-29T13:20:39.608Z,26.20
2023-01-29T13:23:28.802Z,27.77
2023-01-29T13:25:55.849Z,24.55
2023-01-29T13:28:26.688Z,28.60
2023-01-29T13:31:21.515Z,26.67
2023-01-29T13:34:02.027Z,26.57
2023-01-29T13:36:30.947Z,27.48
2023-01-29T13:39:16.143Z,26.33
2023-01-29T13:41:43.713Z,26.75
2023-01-29T13:44:49.408Z,26.55
2023-01-29T13:47:28.398Z,27.88
2023-01-29T13:50:02.538Z,26.90
2023-01-29T13:52:44.677Z,26.67
2023-01-29T13:55:14.787Z,27.88
2023-01-29T13:57:44.828Z,28.10
2023-01-29T14:00:20.525Z,26.55
2023-01-29T14:03:05.503Z,25.48
2023-01-29T14:05:33.712Z,27.85
2023-01-29T14:08:00.439Z,26.95
2023-01-29T14:10:29.848Z,27.17
2023-01-29T14:13:23.772Z,26.73
2023-01-29T14:15:59.635Z,26.92
2023-01-29T14:18:28.380Z,27.30
2023-01-29T14:21:05.815Z,26.75
2023-01-29T14:23:43.066Z,27.10
2023-01-29T14:26:27.522Z,26.63
2023-01-29T14:28:58.666Z,22.07
2023-01-29T14:31:41.339Z,24.73
2023-01-29T14:34:20.699Z,25.38
2023-01-29T14:36:55.209Z,27.15
2023-01-29T14:39:36.954Z,26.13
2023-01-29T14:42:14.859Z,26.25
2023-01-29T14:44:44.718Z,28.33
2023-01-29T14:47:50.238Z,25.63
2023-01-29T14:50:29.105Z,20.42
2023-01-29T14:53:11.081Z,26.05
2023-01-29T14:56:00.099Z,27.40
2023-01-29T14:58:51.955Z,25.25
2023-01-29T15:01:38.283Z,24.98
2023-01-29T15:04:14.276Z,27.33
2023-01-29T15:06:45.928Z,27.08
2023-01-29T15:09:32.749Z,28.52
2023-01-29T15:12:14.600Z,27.77
2023-01-29T15:14:57.467Z,25.80
2023-01-29T15:17:43.466Z,27.98
2023-01-29T15:20:28.501Z,29.05
2023-01-29T15:22:55.751Z,27.35
2023-01-29T15:25:23.045Z,27.10
2023-01-29T15:27:50.316Z,27.38
2023-01-29T15:30:20.590Z,27.13
2023-01-29T15:32:49.049Z,27.50
2023-01-29T15:35:24.028Z,29.15
2023-01-29T15:41:01.492Z,27.65
2023-01-29T15:43:36.125Z,28.45
2023-01-29T15:46:37.091Z,28.48
2023-01-29T15:49:17.967Z,28.45
2023-01-29T15:51:46.640Z,29.92
2023-01-29T15:54:17.974Z,28.38
2023-01-29T15:56:48.640Z,31.45
2023-01-29T15:59:19.332Z,29.58
2023-01-29T16:01:46.582Z,30.40
2023-01-29T16:04:21.008Z,31.55
2023-01-29T16:06:49.896Z,30.80
2023-01-29T16:09:20.596Z,29.65
2023-01-29T16:11:48.339Z,30.83
2023-01-29T16:14:19.160Z,31.23
2023-01-29T16:16:48.518Z,31.15
2023-01-29T16:19:25.744Z,30.70
2023-01-29T16:22:00.062Z,29.90
2023-01-29T16:24:28.197Z,23.50
2023-01-29T16:27:01.044Z,29.83
2023-01-29T16:29:33.413Z,30.80
2023-01-29T16:32:02.761Z,31.17
2023-01-29T16:34:32.623Z,30.23
2023-01-29T16:37:01.954Z,30.50
2023-01-29T16:39:34.275Z,30.65
2023-01-29T16:42:10.747Z,28.48
2023-01-29T16:44:40.018Z,31.60
2023-01-29T16:47:20.612Z,30.65
2023-01-29T16:49:53.711Z,32.42
2023-01-29T16:52:55.159Z,30.70
2023-01-29T16:55:25.474Z,32.55
2023-01-29T16:57:56.074Z,31.35
2023-01-29T17:00:32.188Z,33.25
2023-01-29T17:03:06.492Z,32.80
2023-01-29T17:05:36.935Z,23.35
2023-01-29T17:08:07.176Z,30.67
2023-01-29T17:10:35.997Z,31.42
2023-01-29T17:13:08.547Z,31.92
2023-01-29T17:15:46.839Z,32.38
2023-01-29T17:18:25.092Z,30.73
2023-01-29T17:20:55.396Z,29.42
2023-01-29T17:23:23.225Z,29.98
2023-01-29T17:25:50.252Z,29.10
2023-01-29T17:28:18.471Z,27.92
2023-01-29T17:30:56.623Z,30.95
2023-01-29T17:33:32.058Z,29.27
2023-01-29T17:35:58.874Z,28.73
2023-01-29T17:38:26.867Z,27.83
2023-01-29T17:41:07.178Z,28.73
2023-01-29T17:43:34.790Z,30.02
2023-01-29T17:46:01.712Z,29.20
2023-01-29T17:48:31.265Z,29.67
2023-01-29T17:51:02.907Z,30.00
2023-01-29T17:53:44.146Z,31.33
2023-01-29T17:56:16.189Z,29.67
2023-01-29T17:58:43.227Z,33.28
2023-01-29T18:01:10.050Z,33.15
2023-01-29T18:03:37.029Z,32.45
2023-01-29T18:06:06.643Z,32.35
2023-01-29T18:08:35.899Z,32.67
2023-01-29T18:11:02.789Z,31.77
2023-01-29T18:13:29.848Z,31.17
2023-01-29T18:15:56.767Z,32.35
2023-01-29T18:18:24.873Z,33.10
2023-01-29T18:20:51.780Z,34.13
2023-01-29T18:23:18.701Z,33.10
2023-01-29T18:25:45.928Z,31.88
2023-01-29T18:28:17.692Z,35.55
2023-01-29T18:30:47.856Z,33.92
2023-01-29T18:33:19.204Z,34.22
2023-01-29T18:35:48.178Z,33.42
2023-01-29T18:38:15.650Z,31.88
2023-01-29T18:40:42.637Z,32.33
2023-01-29T18:43:09.903Z,32.85
2023-01-29T18:45:36.854Z,34.47
2023-01-29T18:48:03.752Z,34.97
2023-01-29T18:50:30.738Z,34.75
2023-01-29T18:52:57.708Z,34.25
2023-01-29T18:55:26.614Z,34.00
2023-01-29T18:58:26.488Z,32.38
2023-01-29T19:00:41.977Z,33.30
2023-01-29T19:03:09.655Z,32.15
2023-01-29T19:05:36.529Z,34.45
2023-01-29T19:08:05.265Z,33.15
2023-01-29T19:10:32.967Z,33.75
2023-01-29T19:13:00.153Z,32.53
2023-01-29T19:15:27.144Z,31.88
2023-01-29T19:17:54.195Z,31.98
2023-01-29T19:20:21.169Z,32.60
2023-01-29T19:22:48.671Z,35.03
2023-01-29T19:25:16.863Z,32.88
2023-01-29T19:27:44.240Z,33.63
2023-01-29T19:30:13.183Z,33.40
2023-01-29T19:32:40.711Z,33.70
2023-01-29T19:35:08.156Z,33.63
2023-01-29T19:37:35.270Z,31.80
2023-01-29T19:40:02.449Z,35.03
2023-01-29T19:42:29.593Z,33.72
2023-01-29T19:44:56.860Z,33.85
2023-01-29T19:47:23.841Z,35.58
2023-01-29T19:49:50.737Z,33.70
2023-01-29T19:52:49.900Z,35.72
2023-01-29T19:55:18.776Z,34.72
2023-01-29T19:57:46.656Z,34.42
2023-01-29T20:00:15.647Z,34.60
2023-01-29T20:02:42.860Z,33.10
2023-01-29T20:05:12.210Z,31.65
2023-01-29T20:07:41.336Z,33.67
2023-01-29T20:10:11.679Z,34.83
2023-01-29T20:12:39.272Z,35.70
2023-01-29T20:15:07.790Z,35.72
2023-01-29T20:17:35.116Z,34.15
2023-01-29T20:20:02.828Z,34.95
2023-01-29T20:22:30.189Z,35.70
2023-01-29T20:24:57.797Z,36.10
2023-01-29T20:27:24.968Z,33.90
2023-01-29T20:29:52.827Z,34.22
2023-01-29T20:32:20.333Z,35.33
2023-01-29T20:34:52.211Z,33.97
2023-01-29T20:37:19.867Z,33.63
2023-01-29T20:39:47.435Z,33.75
2023-01-29T20:42:15.175Z,34.17
2023-01-29T20:44:42.104Z,32.95
2023-01-29T20:47:09.260Z,34.92
2023-01-29T20:49:36.734Z,36.03
2023-01-29T20:52:03.547Z,33.22
2023-01-29T20:54:33.285Z,33.50
2023-01-29T20:57:00.439Z,32.35
2023-01-29T20:59:28.948Z,32.92
2023-01-29T21:01:56.226Z,33.47
2023-01-29T21:04:23.478Z,32.60
2023-01-29T21:06:50.434Z,32.50
2023-01-29T21:09:17.383Z,34.13
2023-01-29T21:11:45.285Z,32.45
2023-01-29T21:14:12.553Z,33.15
2023-01-29T21:16:39.939Z,32.08
2023-01-29T21:19:06.782Z,33.70
2023-01-29T21:21:34.805Z,33.75
2023-01-29T21:24:01.824Z,32.92
2023-01-29T21:26:29.129Z,32.83
2023-01-29T21:28:57.207Z,34.55
2023-01-29T21:31:24.221Z,33.38
2023-01-29T21:33:51.170Z,35.03
2023-01-29T21:36:18.399Z,34.85
2023-01-29T21:38:45.273Z,34.25
2023-01-29T21:41:12.388Z,34.17
2023-01-29T21:43:39.328Z,34.13
2023-01-29T21:46:14.160Z,35.17
2023-01-29T21:51:08.243Z,36.15
2023-01-29T21:53:36.694Z,34.35
2023-01-29T21:56:05.424Z,35.67
2023-01-29T21:58:32.341Z,36.58
2023-01-29T22:01:17.986Z,36.78
2023-01-29T22:03:47.493Z,34.45
2023-01-29T22:06:15.303Z,36.85
2023-01-29T22:08:42.147Z,34.08
2023-01-29T22:11:09.865Z,34.70
2023-01-29T22:13:36.818Z,35.28
2023-01-29T22:16:04.713Z,35.72
2023-01-29T22:18:31.811Z,34.38
2023-01-29T22:20:58.734Z,33.78
2023-01-29T22:23:25.514Z,35.47
2023-01-29T22:25:52.315Z,34.55
2023-01-29T22:28:19.145Z,35.25
2023-01-29T22:30:46.111Z,33.70
2023-01-29T22:33:13.198Z,33.30
2023-01-29T22:35:40.083Z,33.00
2023-01-29T22:38:07.436Z,33.88
2023-01-29T22:40:34.398Z,32.30
2023-01-29T22:43:01.347Z,35.30
2023-01-29T22:45:28.351Z,34.35
2023-01-29T22:47:55.391Z,35.40
2023-01-29T22:50:22.245Z,34.58
2023-01-29T22:52:54.027Z,34.22
2023-01-29T22:55:21.238Z,33.47
2023-01-29T22:57:53.544Z,34.33
2023-01-29T23:00:20.725Z,32.60
2023-01-29T23:02:48.267Z,34.63
2023-01-29T23:05:15.163Z,34.35
2023-01-29T23:07:42.014Z,33.33
2023-01-29T23:10:13.111Z,31.83
2023-01-29T23:12:40.085Z,34.38
2023-01-29T23:15:07.518Z,32.17
2023-01-29T23:17:34.667Z,34.00
2023-01-29T23:20:01.492Z,34.65
2023-01-29T23:22:28.339Z,34.92
2023-01-29T23:24:56.309Z,33.80
2023-01-29T23:27:23.124Z,34.65
2023-01-29T23:29:49.964Z,34.33
2023-01-29T23:32:21.180Z,34.95
2023-01-29T23:34:47.964Z,32.55
2023-01-29T23:37:14.812Z,34.38
2023-01-29T23:39:41.617Z,32.00
2023-01-29T23:42:08.542Z,33.00
2023-01-29T23:44:35.930Z,32.65
2023-01-29T23:47:02.767Z,31.20
2023-01-29T23:49:29.624Z,32.47
2023-01-29T23:51:56.355Z,31.80
2023-01-29T23:54:23.167Z,32.58
2023-01-29T23:56:49.913Z,31.50
2023-01-29T23:59:17.167Z,29.55
